Time;durP1;ratioP1;P1;durP2;ratioP2;P2;SDS_P1;SDS_P2;PMS_P1;PMS_P2;Temp;Humidity;BMP_temperature;BMP_pressure;BME280_temperature;BME280_humidity;BME280_pressure;Samples;Min_cycle;Max_cycle;Signal;HPM_P1;HPM_P2
2024/01/09 00:00:42;;;;;;;4.40;3.00;;;;;;;19.58;34.93;103798.63;5023726;28;20061;-65
2024/01/09 00:03:08;;;;;;;5.47;3.47;;;;;;;19.56;35.02;103797.84;5020653;28;21017;-65
2024/01/09 00:05:33;;;;;;;5.15;3.35;;;;;;;19.48;34.97;103791.38;5027963;28;20037;-65
2024/01/09 00:07:58;;;;;;;4.53;3.00;;;;;;;19.53;35.06;103798.03;5027740;28;20037;-65
2024/01/09 00:18:22;;;;;;;3.97;3.13;;;;;;;19.44;35.06;103796.03;4984520;28;20207;-65
2024/01/09 00:24:42;;;;;;;4.63;2.92;;;;;;;19.41;35.13;103788.31;4979075;28;20053;-65
2024/01/09 00:27:39;;;;;;;4.07;2.78;;;;;;;19.36;34.96;103784.28;4982045;28;20234;-64
2024/01/09 00:30:05;;;;;;;3.90;2.58;;;;;;;19.38;35.14;103791.16;4981430;28;20475;-65
2024/01/09 00:32:31;;;;;;;4.53;3.08;;;;;;;19.37;35.25;103788.63;4980212;28;20659;-65
2024/01/09 00:34:57;;;;;;;3.75;2.88;;;;;;;19.32;35.38;103789.78;4987333;28;20030;-65
2024/01/09 00:37:22;;;;;;;4.80;3.05;;;;;;;19.30;35.33;103786.41;4986055;28;20110;-65
2024/01/09 00:39:50;;;;;;;4.03;2.58;;;;;;;19.25;35.36;103788.53;4982915;28;20038;-65
2024/01/09 00:42:16;;;;;;;3.28;2.65;;;;;;;19.26;35.48;103790.22;4987836;28;20046;-65
2024/01/09 00:44:41;;;;;;;3.25;2.33;;;;;;;19.19;35.44;103783.63;4983916;28;20042;-65
2024/01/09 00:47:07;;;;;;;4.50;3.00;;;;;;;19.29;35.35;103792.66;4985566;28;20045;-65
2024/01/09 00:49:32;;;;;;;4.22;3.03;;;;;;;19.32;35.12;103773.09;4982318;28;20042;-64
2024/01/09 00:51:58;;;;;;;4.75;3.50;;;;;;;19.46;35.04;103782.72;4987010;28;20053;-65
2024/01/09 00:54:23;;;;;;;3.58;2.75;;;;;;;19.44;35.07;103766.13;4984421;28;20827;-65
2024/01/09 00:56:49;;;;;;;4.35;2.75;;;;;;;19.23;35.21;103734.94;4984438;28;20038;-65
2024/01/09 00:59:14;;;;;;;4.53;2.65;;;;;;;19.51;35.05;103778.78;4978499;28;20049;-64
2024/01/09 01:01:40;;;;;;;4.35;2.67;;;;;;;19.44;35.03;103758.19;4983124;28;20439;-65
2024/01/09 01:04:05;;;;;;;3.03;2.28;;;;;;;19.53;35.02;103779.53;4986176;28;20046;-65
2024/01/09 01:06:41;;;;;;;4.22;2.42;;;;;;;19.49;35.10;103777.22;4985580;28;20350;-65
2024/01/09 01:09:07;;;;;;;3.75;2.53;;;;;;;19.51;35.12;103783.25;4984824;28;20038;-65
2024/01/09 01:11:33;;;;;;;4.28;2.83;;;;;;;19.31;35.21;103755.56;4984202;28;20031;-65
2024/01/09 01:13:58;;;;;;;4.47;2.40;;;;;;;19.45;35.03;103776.59;4984604;28;20042;-65
2024/01/09 01:16:24;;;;;;;2.78;2.40;;;;;;;19.41;35.08;103769.84;4991426;28;20474;-65
2024/01/09 01:18:49;;;;;;;3.30;2.30;;;;;;;19.46;35.10;103786.22;5013308;28;20131;-65
2024/01/09 01:21:15;;;;;;;2.78;2.20;;;;;;;19.44;35.20;103785.47;5020434;28;20037;-65
2024/01/09 01:23:41;;;;;;;3.25;2.35;;;;;;;19.38;35.30;103779.75;5009539;28;20517;-65
2024/01/09 01:26:07;;;;;;;3.17;2.35;;;;;;;19.36;35.23;103779.00;5011533;28;20162;-66
2024/01/09 01:28:32;;;;;;;3.47;2.10;;;;;;;19.39;35.12;103784.06;5004888;28;20040;-65
2024/01/09 01:30:58;;;;;;;5.07;2.72;;;;;;;19.27;35.20;103764.66;5017959;28;20096;-65
2024/01/09 01:33:23;;;;;;;4.80;2.80;;;;;;;19.35;35.19;103787.88;5013238;28;20079;-65
2024/01/09 01:35:49;;;;;;;2.90;2.10;;;;;;;19.22;35.21;103772.03;5008184;28;20708;-64
2024/01/09 01:38:16;;;;;;;3.28;2.30;;;;;;;19.29;35.28;103784.72;5004434;28;20048;-64
2024/01/09 01:40:41;;;;;;;3.00;2.40;;;;;;;19.03;35.07;103748.69;5008961;28;20120;-65
2024/01/09 01:43:07;;;;;;;4.03;2.55;;;;;;;19.28;35.14;103790.09;5004830;28;20751;-65
2024/01/09 01:45:33;;;;;;;4.10;2.25;;;;;;;19.25;35.37;103798.25;5005231;28;20045;-65
2024/01/09 01:48:01;;;;;;;3.22;2.20;;;;;;;19.21;35.20;103787.06;5007399;28;20041;-64
2024/01/09 01:50:31;;;;;;;2.90;2.15;;;;;;;19.17;35.31;103782.91;5016658;28;20056;-65
2024/01/09 01:53:00;;;;;;;3.50;2.30;;;;;;;19.18;35.27;103784.59;5008891;28;20081;-65
2024/01/09 01:55:27;;;;;;;3.17;2.30;;;;;;;19.09;35.35;103777.31;5007743;28;20046;-64
2024/01/09 01:57:55;;;;;;;2.60;2.15;;;;;;;19.14;35.29;103777.00;5004421;28;20025;-65
2024/01/09 02:00:22;;;;;;;4.88;2.60;;;;;;;19.01;35.34;103764.59;5007766;28;20037;-65
2024/01/09 02:02:50;;;;;;;2.38;1.90;;;;;;;19.14;35.27;103782.28;5011749;28;20377;-65
2024/01/09 02:05:17;;;;;;;3.22;2.40;;;;;;;19.06;35.33;103772.22;5005762;28;20037;-65
2024/01/09 02:07:45;;;;;;;3.45;2.30;;;;;;;19.07;35.56;103781.84;5007641;28;20053;-65
2024/01/09 02:10:11;;;;;;;2.97;1.92;;;;;;;19.01;35.30;103771.69;5008783;28;20058;-65
2024/01/09 02:12:37;;;;;;;3.13;2.15;;;;;;;19.01;35.38;103758.47;5012557;28;20119;-65
2024/01/09 02:15:04;;;;;;;3.15;2.20;;;;;;;19.15;35.23;103784.81;5005845;28;20627;-65
2024/01/09 02:17:30;;;;;;;3.33;1.80;;;;;;;19.21;35.16;103786.19;5021852;28;20152;-65
2024/01/09 02:19:59;;;;;;;4.07;2.00;;;;;;;19.12;34.99;103763.88;5028640;28;20049;-65
2024/01/09 02:22:24;;;;;;;3.13;2.35;;;;;;;19.21;35.15;103781.78;5030643;28;20048;-64
2024/01/09 02:24:50;;;;;;;3.03;2.03;;;;;;;19.11;35.23;103775.41;5022113;28;20037;-65
2024/01/09 02:28:00;;;;;;;3.25;2.20;;;;;;;19.12;35.34;103774.44;5029129;28;20040;-65
2024/01/09 02:30:25;;;;;;;3.60;2.22;;;;;;;19.12;35.24;103787.66;5015127;28;20064;-65
2024/01/09 02:32:51;;;;;;;2.53;2.00;;;;;;;19.11;35.33;103771.91;5029261;28;20033;-65
2024/01/09 02:35:17;;;;;;;2.85;2.10;;;;;;;19.04;35.36;103771.50;5021678;28;20119;-65
2024/01/09 02:37:43;;;;;;;2.85;1.80;;;;;;;19.10;35.26;103781.63;5026448;28;20049;-65
2024/01/09 02:40:09;;;;;;;2.65;2.00;;;;;;;19.03;35.44;103783.00;5025159;28;20049;-64
2024/01/09 02:42:34;;;;;;;3.67;2.03;;;;;;;19.09;35.24;103785.22;5025437;28;20500;-65
2024/01/09 02:45:00;;;;;;;2.78;1.77;;;;;;;19.08;35.40;103780.06;5025441;28;20064;-65
2024/01/09 02:47:26;;;;;;;2.42;1.85;;;;;;;19.12;35.25;103781.53;5032322;28;20821;-65
2024/01/09 02:49:52;;;;;;;4.03;2.25;;;;;;;19.16;35.09;103777.72;5026201;28;20124;-65
2024/01/09 02:52:18;;;;;;;2.10;1.83;;;;;;;19.21;35.20;103770.31;5025788;28;20100;-65
2024/01/09 02:54:44;;;;;;;2.10;1.88;;;;;;;19.37;35.03;103770.97;5026174;28;20533;-65
2024/01/09 02:57:12;;;;;;;2.13;1.77;;;;;;;19.33;35.06;103772.97;5036943;28;20033;-65
2024/01/09 02:59:38;;;;;;;2.28;1.67;;;;;;;19.33;35.05;103772.97;5026760;28;20041;-64
2024/01/09 03:02:04;;;;;;;3.20;2.28;;;;;;;19.31;35.11;103766.13;5031321;28;20049;-65
2024/01/09 03:04:30;;;;;;;1.85;1.65;;;;;;;19.39;35.07;103784.06;5032893;28;20060;-65
2024/01/09 03:06:56;;;;;;;2.20;1.63;;;;;;;19.37;35.15;103778.06;5022229;28;20107;-64
2024/01/09 03:09:21;;;;;;;2.63;1.90;;;;;;;19.29;35.04;103770.66;5028199;28;20056;-64
2024/01/09 03:11:47;;;;;;;2.30;1.65;;;;;;;19.30;34.97;103765.28;5032089;28;20494;-66
2024/01/09 03:14:14;;;;;;;1.88;1.52;;;;;;;19.28;35.21;103764.53;5028340;28;20060;-65
2024/01/09 03:16:39;;;;;;;1.88;1.65;;;;;;;19.28;35.14;103772.47;5023466;28;20049;-65
2024/01/09 03:19:05;;;;;;;2.15;1.70;;;;;;;19.23;35.17;103760.53;5027821;28;20060;-65
2024/01/09 03:21:30;;;;;;;2.58;1.80;;;;;;;19.26;35.14;103766.44;5021202;28;20041;-65
2024/01/09 03:23:56;;;;;;;2.85;1.73;;;;;;;19.23;35.10;103766.66;5024490;28;20053;-65
2024/01/09 03:26:22;;;;;;;3.08;2.00;;;;;;;19.11;35.14;103740.22;5025882;28;20041;-65
2024/01/09 03:28:47;;;;;;;2.40;1.80;;;;;;;19.20;35.19;103763.34;5027656;28;20107;-65
2024/01/09 03:31:23;;;;;;;2.60;2.00;;;;;;;19.14;35.27;103758.50;5029241;28;20052;-65
2024/01/09 03:33:50;;;;;;;2.90;2.00;;;;;;;19.15;35.15;103776.88;5025239;28;20183;-65
2024/01/09 03:36:16;;;;;;;4.13;1.85;;;;;;;19.13;35.40;103773.50;5007791;28;20486;-65
2024/01/09 03:38:42;;;;;;;2.85;1.83;;;;;;;19.08;35.33;103769.50;5029467;28;20041;-65
2024/01/09 03:41:08;;;;;;;3.05;1.77;;;;;;;19.07;35.27;103771.28;5029657;28;20044;-65
2024/01/09 03:43:33;;;;;;;2.65;1.70;;;;;;;18.98;35.39;103764.81;5032317;28;20476;-65
2024/01/09 03:45:59;;;;;;;3.38;1.90;;;;;;;19.04;35.43;103775.94;5028201;28;20454;-65
2024/01/09 03:48:25;;;;;;;2.53;1.88;;;;;;;19.00;35.28;103773.47;5032369;28;20136;-65
2024/01/09 03:50:50;;;;;;;1.95;1.67;;;;;;;18.95;35.50;103772.09;5025894;28;20029;-65
2024/01/09 03:53:16;;;;;;;3.20;2.10;;;;;;;19.07;35.34;103779.22;5028602;28;20404;-65
2024/01/09 03:55:41;;;;;;;3.25;2.03;;;;;;;19.23;35.13;103779.03;5018594;28;20123;-65
2024/01/09 03:58:07;;;;;;;2.50;1.52;;;;;;;19.31;35.06;103776.69;5017438;28;20040;-65
2024/01/09 04:00:33;;;;;;;2.10;1.60;;;;;;;19.31;34.99;103771.41;5024566;28;20075;-65
2024/01/09 04:03:00;;;;;;;3.03;1.92;;;;;;;19.28;35.06;103772.47;5029306;28;20327;-65
2024/01/09 04:05:25;;;;;;;2.28;1.65;;;;;;;19.17;34.99;103758.28;5028815;28;20782;-65
2024/01/09 04:07:51;;;;;;;2.88;1.63;;;;;;;19.27;35.09;103780.50;5025735;28;20036;-63
2024/01/09 04:10:16;;;;;;;3.50;1.90;;;;;;;19.22;35.02;103775.53;5026199;28;20037;-65
2024/01/09 04:12:42;;;;;;;3.55;1.63;;;;;;;19.19;34.88;103775.72;5022756;28;20053;-65
2024/01/09 04:15:08;;;;;;;3.47;1.70;;;;;;;19.20;34.89;103769.47;5025604;28;20056;-65
2024/01/09 04:17:33;;;;;;;2.28;1.65;;;;;;;19.20;35.04;103780.03;5021726;28;20053;-65
2024/01/09 04:20:01;;;;;;;3.40;1.70;;;;;;;19.21;34.96;103772.97;5030393;28;20093;-64
2024/01/09 04:22:26;;;;;;;2.88;1.95;;;;;;;19.16;34.98;103778.56;5030014;28;20041;-65
2024/01/09 04:24:52;;;;;;;3.03;1.77;;;;;;;19.15;35.03;103778.69;5024703;28;20126;-65
2024/01/09 04:27:17;;;;;;;3.28;1.70;;;;;;;19.12;35.20;103779.72;5026934;28;20048;-65
2024/01/09 04:29:43;;;;;;;2.78;1.70;;;;;;;19.09;34.95;103777.31;5027631;28;20034;-64
2024/01/09 04:32:08;;;;;;;2.03;1.48;;;;;;;19.04;35.34;103766.22;5026108;28;20482;-65
2024/01/09 04:34:36;;;;;;;2.17;1.70;;;;;;;19.04;35.23;103768.00;5004152;28;20095;-64
2024/01/09 04:37:02;;;;;;;2.20;1.60;;;;;;;19.02;35.26;103773.38;5024837;28;20052;-65
2024/01/09 04:39:27;;;;;;;2.33;1.80;;;;;;;19.04;35.10;103770.66;5024632;28;20037;-64
2024/01/09 04:41:53;;;;;;;2.63;1.85;;;;;;;19.00;35.17;103785.84;5023701;28;20898;-65
2024/01/09 04:44:18;;;;;;;2.60;1.67;;;;;;;18.87;35.06;103769.13;5022009;28;20083;-65
2024/01/09 04:46:44;;;;;;;2.22;1.73;;;;;;;18.89;35.28;103789.22;5026186;28;20357;-65
2024/01/09 04:49:10;;;;;;;1.70;1.60;;;;;;;18.90;35.13;103782.13;5008358;28;20040;-65
2024/01/09 04:51:35;;;;;;;2.80;1.88;;;;;;;18.90;35.14;103772.41;5021995;28;20450;-65
2024/01/09 04:54:01;;;;;;;1.58;1.48;;;;;;;19.05;35.12;103785.53;5027008;28;20041;-64
2024/01/09 04:56:27;;;;;;;2.38;1.58;;;;;;;19.07;35.05;103775.72;5024430;28;20553;-64
2024/01/09 04:58:53;;;;;;;2.42;1.55;;;;;;;18.93;34.88;103766.91;5024234;28;20037;-64
2024/01/09 05:01:22;;;;;;;2.55;2.00;;;;;;;19.00;34.96;103781.41;5026136;28;20052;-65
2024/01/09 05:03:49;;;;;;;1.95;1.75;;;;;;;19.02;34.98;103778.66;5028200;28;20051;-65
2024/01/09 05:06:16;;;;;;;2.13;1.70;;;;;;;19.02;35.08;103791.84;5020472;28;20038;-65
2024/01/09 05:08:42;;;;;;;2.85;1.70;;;;;;;19.00;34.99;103791.97;5023324;28;20365;-65
2024/01/09 05:11:08;;;;;;;3.90;1.80;;;;;;;18.98;35.00;103788.56;5033206;28;20037;-64
2024/01/09 05:13:33;;;;;;;2.17;1.70;;;;;;;18.95;35.06;103787.94;5022818;28;20041;-65
2024/01/09 05:15:59;;;;;;;2.72;1.85;;;;;;;18.93;35.00;103788.06;5019503;28;20373;-65
2024/01/09 05:25:29;;;;;;;2.45;1.92;;;;;;;18.88;35.17;103786.66;5025707;28;20107;-65
2024/01/09 05:27:55;;;;;;;2.25;1.48;;;;;;;18.85;34.98;103787.72;5031897;28;20041;-65
2024/01/09 05:30:21;;;;;;;2.15;1.60;;;;;;;18.86;35.17;103789.41;5031200;28;20076;-64
2024/01/09 05:32:46;;;;;;;4.15;1.80;;;;;;;18.90;35.10;103788.25;5027067;28;20041;-65
2024/01/09 05:35:12;;;;;;;2.25;1.77;;;;;;;18.96;34.88;103790.47;5024478;28;20089;-65
2024/01/09 05:37:37;;;;;;;2.67;1.63;;;;;;;18.95;34.88;103777.38;5034503;28;20045;-65
2024/01/09 05:40:04;;;;;;;2.83;1.63;;;;;;;18.97;34.94;103778.13;5030886;28;20048;-65
2024/01/09 05:42:29;;;;;;;2.55;1.60;;;;;;;19.01;34.84;103780.44;5025372;28;20042;-65
2024/01/09 05:44:55;;;;;;;2.22;1.58;;;;;;;19.03;34.98;103783.00;5031054;28;20041;-65
2024/01/09 05:47:20;;;;;;;2.42;1.85;;;;;;;19.10;34.79;103792.19;5026693;28;20457;-65
2024/01/09 05:49:46;;;;;;;2.13;1.70;;;;;;;19.12;34.91;103789.47;5031452;28;20536;-65
2024/01/09 05:52:11;;;;;;;2.17;1.67;;;;;;;19.11;34.93;103790.41;5027363;28;20037;-66
2024/01/09 05:54:37;;;;;;;2.85;1.63;;;;;;;19.08;34.89;103791.47;5025126;28;20038;-65
2024/01/09 06:00:56;;;;;;;3.40;1.80;;;;;;;19.04;34.95;103800.53;5024707;28;20098;-65
2024/01/09 06:03:21;;;;;;;2.78;1.42;;;;;;;19.06;34.94;103803.94;5029467;28;20037;-65
2024/01/09 06:05:47;;;;;;;2.08;1.60;;;;;;;19.02;34.95;103797.97;5021734;28;20432;-65
2024/01/09 06:08:13;;;;;;;2.53;1.98;;;;;;;19.01;35.11;103803.38;5028957;28;20029;-65
2024/01/09 06:10:38;;;;;;;2.67;1.77;;;;;;;19.02;35.01;103805.06;5025256;28;20706;-65
2024/01/09 06:13:04;;;;;;;2.45;1.67;;;;;;;19.01;35.15;103795.44;5030760;28;20037;-65
2024/01/09 06:15:29;;;;;;;3.08;1.73;;;;;;;18.94;35.03;103796.81;5023896;28;20045;-65
2024/01/09 06:17:55;;;;;;;1.88;1.45;;;;;;;18.93;34.97;103797.75;5024782;28;20050;-65
2024/01/09 06:20:22;;;;;;;1.98;1.65;;;;;;;18.90;35.04;103798.81;5035885;28;20420;-65
2024/01/09 06:22:47;;;;;;;2.53;1.92;;;;;;;18.92;35.04;103810.13;5025970;28;20040;-65
2024/01/09 06:25:13;;;;;;;2.40;1.92;;;;;;;18.88;35.19;103803.38;5034748;28;20097;-64
2024/01/09 06:32:07;;;;;;;2.88;2.05;;;;;;;18.87;35.06;103817.50;5028775;28;20047;-64
2024/01/09 06:35:05;;;;;;;2.60;1.48;;;;;;;18.80;35.18;103807.44;5025673;28;20630;-65
2024/01/09 06:37:31;;;;;;;2.08;1.70;;;;;;;18.79;35.26;103813.66;5032889;28;20029;-65
2024/01/09 06:39:56;;;;;;;2.38;1.90;;;;;;;18.78;35.26;103823.38;5028287;28;20045;-64
2024/01/09 06:42:22;;;;;;;2.85;2.00;;;;;;;18.92;34.94;103817.19;5026018;28;20029;-65
2024/01/09 06:44:48;;;;;;;2.38;1.73;;;;;;;19.06;34.81;103811.00;5031054;28;20072;-68
2024/01/09 06:47:13;;;;;;;3.05;1.70;;;;;;;19.46;34.13;103815.28;5009649;28;20045;-67
2024/01/09 06:49:39;;;;;;;1.92;1.60;;;;;;;19.77;34.07;103821.13;5034879;28;20491;-65
2024/01/09 06:52:04;;;;;;;1.70;1.48;;;;;;;19.67;33.96;103807.69;5020960;28;20045;-65
2024/01/09 06:54:30;;;;;;;2.58;1.63;;;;;;;19.72;34.09;103821.44;5023181;28;20033;-64
2024/01/09 06:56:55;;;;;;;2.70;1.63;;;;;;;19.60;34.22;103828.44;5021801;28;20037;-64
2024/01/09 06:59:21;;;;;;;2.25;1.80;;;;;;;19.48;34.43;103821.31;5015893;28;20519;-65
2024/01/09 07:01:46;;;;;;;2.13;1.52;;;;;;;19.31;34.73;103818.97;5030402;28;20041;-64
2024/01/09 07:04:14;;;;;;;3.15;2.10;;;;;;;19.29;34.63;103818.22;5028785;28;20095;-65
2024/01/09 07:06:39;;;;;;;1.88;1.60;;;;;;;19.24;34.94;103815.91;5019892;28;20049;-65
2024/01/09 07:09:05;;;;;;;2.35;1.75;;;;;;;19.28;34.90;103824.47;5006841;28;20041;-65
2024/01/09 07:11:30;;;;;;;2.70;1.58;;;;;;;19.24;34.92;103825.63;5026322;28;20040;-64
2024/01/09 07:13:56;;;;;;;2.42;2.22;;;;;;;19.22;34.85;103828.38;5025428;28;20030;-64
2024/01/09 07:16:21;;;;;;;1.95;1.73;;;;;;;19.19;34.92;103831.19;5025381;28;20046;-66
2024/01/09 07:18:47;;;;;;;1.92;1.73;;;;;;;19.08;34.67;103806.47;5027638;28;20102;-64
2024/01/09 07:21:12;;;;;;;2.00;1.80;;;;;;;19.18;34.82;103826.00;5019833;28;20045;-64
2024/01/09 07:23:38;;;;;;;3.33;1.80;;;;;;;19.18;34.92;103836.59;5027454;28;20037;-64
2024/01/09 07:26:03;;;;;;;2.58;2.05;;;;;;;19.12;34.88;103831.72;5030188;28;20040;-64
2024/01/09 07:28:29;;;;;;;2.67;1.73;;;;;;;19.13;34.97;103830.75;5025754;28;20569;-64
2024/01/09 07:30:56;;;;;;;3.13;2.15;;;;;;;19.08;34.87;103832.88;5021704;28;20045;-64
2024/01/09 07:33:22;;;;;;;2.42;1.80;;;;;;;19.23;34.73;103831.84;5027740;28;20042;-65
2024/01/09 07:35:47;;;;;;;2.88;1.70;;;;;;;19.70;34.18;103839.19;5016067;28;20038;-65
2024/01/09 07:38:13;;;;;;;4.10;2.22;;;;;;;20.09;33.65;103834.72;5034010;28;20052;-65
2024/01/09 07:40:38;;;;;;;2.10;1.90;;;;;;;20.17;33.42;103825.28;5021476;28;20390;-65
2024/01/09 07:43:04;;;;;;;1.98;1.70;;;;;;;20.29;33.57;103831.50;5021254;28;20646;-65
2024/01/09 07:45:30;;;;;;;1.95;1.30;;;;;;;20.19;33.46;103841.91;5027815;28;20080;-64
2024/01/09 07:47:55;;;;;;;2.22;1.95;;;;;;;20.11;33.57;103841.59;5024694;28;20044;-65
2024/01/09 07:50:22;;;;;;;3.40;2.00;;;;;;;20.03;33.64;103837.78;5026158;28;20040;-65
2024/01/09 07:52:47;;;;;;;2.97;2.00;;;;;;;20.07;33.53;103852.50;5006621;28;20520;-65
2024/01/09 07:55:13;;;;;;;3.28;1.70;;;;;;;19.89;34.28;103850.19;5023344;28;20053;-65
2024/01/09 07:57:38;;;;;;;2.53;2.08;;;;;;;19.80;34.10;103855.28;5027753;28;20069;-65
2024/01/09 08:00:05;;;;;;;2.35;2.10;;;;;;;19.69;34.40;103856.00;5021104;28;20038;-75
2024/01/09 08:02:37;;;;;;;2.70;1.92;;;;;;;19.57;34.39;103844.50;5005931;28;20050;-76
2024/01/09 08:05:02;;;;;;;2.78;2.00;;;;;;;19.45;34.54;103840.00;5026612;28;20095;-76
2024/01/09 08:07:30;;;;;;;2.33;2.00;;;;;;;19.53;34.54;103856.19;5025045;28;20818;-72
2024/01/09 08:09:55;;;;;;;2.83;1.95;;;;;;;19.30;34.50;103836.63;5018745;28;20045;-77
2024/01/09 08:12:21;;;;;;;2.50;2.30;;;;;;;19.40;34.48;103849.22;5008800;28;21238;-77
2024/01/09 08:14:48;;;;;;;5.63;2.90;;;;;;;19.44;34.66;103853.34;5021198;28;20600;-76
2024/01/09 08:17:14;;;;;;;4.03;3.03;;;;;;;19.25;34.64;103816.75;4988747;28;21021;-76
2024/01/09 08:19:39;;;;;;;5.80;4.13;;;;;;;19.47;34.56;103846.03;5007298;28;20128;-76
2024/01/09 08:22:05;;;;;;;6.28;5.28;;;;;;;19.51;34.61;103852.81;5006959;28;20393;-76
2024/01/09 08:24:32;;;;;;;6.00;4.03;;;;;;;19.54;34.50;103862.34;5026059;28;20470;-76
2024/01/09 08:26:58;;;;;;;5.13;4.28;;;;;;;19.55;34.55;103859.59;5020742;28;20129;-76
2024/01/09 08:29:27;;;;;;;7.30;5.28;;;;;;;19.53;34.45;103855.34;5023575;28;20108;-75
2024/01/09 08:31:53;;;;;;;3.92;3.40;;;;;;;19.57;34.51;103856.88;5021632;28;20128;-75
2024/01/09 08:34:19;;;;;;;4.38;3.40;;;;;;;19.59;34.36;103865.53;5027800;28;20037;-75
2024/01/09 08:36:45;;;;;;;6.35;5.78;;;;;;;19.80;34.01;103837.63;5007380;28;20052;-76
2024/01/09 08:39:12;;;;;;;8.65;7.45;;;;;;;20.19;33.56;103851.63;5025307;28;20473;-75
2024/01/09 08:41:38;;;;;;;10.18;9.18;;;;;;;20.36;33.30;103850.44;5020653;28;20052;-75
2024/01/09 08:44:04;;;;;;;11.75;10.70;;;;;;;20.62;32.57;103854.69;5024179;28;20662;-75
2024/01/09 08:46:29;;;;;;;20.13;18.65;;;;;;;20.49;33.21;103845.97;5001218;28;20075;-71
2024/01/09 08:48:55;;;;;;;20.92;19.27;;;;;;;20.66;32.89;103842.09;5014307;28;20045;-75
2024/01/09 08:51:21;;;;;;;47.58;43.70;;;;;;;20.68;32.99;103851.63;5017892;28;20064;-77
2024/01/09 08:53:46;;;;;;;35.65;32.90;;;;;;;20.68;33.15;103848.13;5032482;28;20059;-75
2024/01/09 08:56:12;;;;;;;51.70;47.50;;;;;;;20.78;33.13;103857.06;5024575;28;20053;-75
2024/01/09 08:58:37;;;;;;;10.25;9.43;;;;;;;20.61;33.63;103857.47;5013721;28;20112;-76
2024/01/09 09:01:03;;;;;;;46.20;42.53;;;;;;;20.46;33.58;103852.31;5024763;28;20041;-76
2024/01/09 09:03:29;;;;;;;65.85;59.45;;;;;;;20.42;33.64;103855.31;5028057;28;20029;-76
2024/01/09 09:05:56;;;;;;;61.35;55.92;;;;;;;20.45;33.27;103850.63;5026853;28;20464;-76
2024/01/09 09:08:21;;;;;;;42.05;38.78;;;;;;;20.47;33.42;103840.81;5017341;28;20156;-76
2024/01/09 09:10:47;;;;;;;71.30;64.28;;;;;;;20.75;33.42;103865.25;5010366;28;20045;-76
2024/01/09 09:13:12;;;;;;;61.70;55.75;;;;;;;20.96;33.15;103860.16;5032118;28;20048;-76
2024/01/09 09:15:38;;;;;;;69.32;62.60;;;;;;;21.25;32.61;103863.31;5024916;28;20045;-76
2024/01/09 09:18:04;;;;;;;51.75;47.47;;;;;;;21.16;32.63;103856.00;5010332;28;20053;-76
2024/01/09 09:20:30;;;;;;;77.95;69.95;;;;;;;21.03;32.91;103841.06;5026159;28;20049;-76
2024/01/09 09:22:55;;;;;;;59.35;53.78;;;;;;;21.10;32.73;103850.22;5028469;28;20515;-75
2024/01/09 09:25:21;;;;;;;78.72;70.55;;;;;;;21.15;32.62;103854.31;5008622;28;20106;-75
2024/01/09 09:27:46;;;;;;;67.53;61.00;;;;;;;20.94;32.95;103833.78;5024785;28;20114;-75
2024/01/09 09:30:12;;;;;;;79.78;71.20;;;;;;;20.94;32.89;103839.09;5009593;28;20110;-75
2024/01/09 09:32:38;;;;;;;90.80;78.60;;;;;;;20.83;33.32;103865.53;5002181;28;20042;-75
2024/01/09 09:35:04;;;;;;;46.60;42.83;;;;;;;20.62;33.34;103841.47;5029379;28;20041;-75
2024/01/09 09:37:30;;;;;;;56.80;52.03;;;;;;;20.73;33.21;103852.13;5010228;28;20071;-74
2024/01/09 09:39:55;;;;;;;70.90;64.13;;;;;;;20.82;33.26;103861.19;5024014;28;20041;-76
2024/01/09 09:42:21;;;;;;;81.47;72.88;;;;;;;21.02;32.90;103871.16;5009928;28;20855;-76
2024/01/09 09:44:51;;;;;;;81.28;72.65;;;;;;;21.05;32.73;103846.25;5026051;28;20092;-75
2024/01/09 09:47:18;;;;;;;78.32;70.13;;;;;;;21.36;32.46;103860.69;5023871;28;20048;-75
2024/01/09 09:49:45;;;;;;;75.80;68.03;;;;;;;21.45;32.40;103860.00;5022444;28;20071;-75
2024/01/09 09:52:12;;;;;;;72.32;64.53;;;;;;;21.52;32.25;103858.53;5007005;28;20037;-75
2024/01/09 09:54:38;;;;;;;84.15;75.10;;;;;;;21.53;32.46;103860.25;5008379;28;20037;-75
2024/01/09 09:57:04;;;;;;;79.25;70.85;;;;;;;21.41;32.61;103862.03;5022364;28;20116;-75
2024/01/09 09:59:30;;;;;;;81.30;72.60;;;;;;;21.22;32.80;103860.88;5026248;28;20522;-74
2024/01/09 10:01:57;;;;;;;105.43;85.20;;;;;;;21.03;32.78;103862.25;5005435;28;21953;-75
2024/01/09 10:04:35;;;;;;;111.93;87.43;;;;;;;20.93;32.95;103861.25;5025561;28;20123;-75
2024/01/09 10:07:05;;;;;;;145.65;101.45;;;;;;;20.78;33.16;103868.50;5021663;28;20045;-76
2024/01/09 10:09:34;;;;;;;72.28;65.20;;;;;;;20.73;33.11;103860.06;5012988;28;20074;-75
2024/01/09 10:12:00;;;;;;;126.47;94.00;;;;;;;20.72;33.38;103860.19;5022691;28;20124;-75
2024/01/09 10:14:26;;;;;;;118.72;91.30;;;;;;;20.57;33.57;103848.91;5025719;28;20029;-76
2024/01/09 10:16:56;;;;;;;121.18;92.15;;;;;;;20.59;33.64;103856.72;5023211;28;20049;-74
2024/01/09 10:19:24;;;;;;;133.32;97.07;;;;;;;20.76;33.11;103849.25;5021790;28;20044;-75
2024/01/09 10:21:50;;;;;;;88.00;77.80;;;;;;;21.10;32.88;103844.94;5007239;28;20537;-74
2024/01/09 10:24:17;;;;;;;107.60;86.13;;;;;;;21.14;32.86;103832.28;5024390;28;20098;-76
2024/01/09 10:26:43;;;;;;;105.18;85.82;;;;;;;21.37;32.51;103836.72;5018277;28;20105;-75
2024/01/09 10:29:09;;;;;;;98.35;82.93;;;;;;;21.42;32.36;103837.22;5023131;28;20051;-75
2024/01/09 10:31:35;;;;;;;127.45;94.95;;;;;;;21.41;32.56;103842.63;5023338;28;20120;-74
2024/01/09 10:34:00;;;;;;;161.80;108.35;;;;;;;21.25;32.54;103835.00;5024083;28;20037;-75
2024/01/09 10:36:27;;;;;;;171.52;111.18;;;;;;;21.12;32.67;103836.84;5009654;28;20131;-75
2024/01/09 10:39:02;;;;;;;177.68;113.32;;;;;;;20.96;33.05;103820.41;5030156;28;20036;-75
2024/01/09 10:41:28;;;;;;;201.93;122.53;;;;;;;20.98;33.02;103829.94;5026550;28;20048;-75
2024/01/09 10:43:54;;;;;;;179.75;114.22;;;;;;;20.84;33.05;103829.31;5025602;28;20034;-75
2024/01/09 10:46:25;;;;;;;183.27;116.63;;;;;;;20.80;33.16;103832.16;5021098;28;20044;-76
2024/01/09 10:48:53;;;;;;;186.18;117.10;;;;;;;20.75;33.19;103821.06;5022383;28;20029;-75
2024/01/09 10:51:18;;;;;;;176.18;113.22;;;;;;;20.67;33.33;103817.31;5024054;28;20121;-75
2024/01/09 10:53:48;;;;;;;167.75;110.22;;;;;;;20.49;33.40;103793.03;5023161;28;20413;-75
2024/01/09 10:56:18;;;;;;;157.38;107.60;;;;;;;20.66;33.32;103805.88;5019942;28;20385;-74
2024/01/09 10:58:47;;;;;;;151.70;105.43;;;;;;;20.99;32.77;103804.28;5021320;28;20041;-75
2024/01/09 11:01:16;;;;;;;118.75;92.10;;;;;;;21.06;32.68;103774.59;5022443;28;20506;-75
2024/01/09 11:03:44;;;;;;;123.20;94.35;;;;;;;21.35;32.37;103787.41;5023338;28;20469;-75
2024/01/09 11:06:14;;;;;;;165.02;109.72;;;;;;;21.31;32.38;103784.16;5021507;28;20520;-76
2024/01/09 11:08:43;;;;;;;163.90;108.93;;;;;;;21.24;32.42;103798.00;5006095;28;20377;-76
2024/01/09 11:11:12;;;;;;;203.25;123.88;;;;;;;21.19;32.66;103794.84;5019419;28;20762;-75
2024/01/09 11:13:42;;;;;;;181.40;115.03;;;;;;;21.11;32.67;103793.63;5008718;28;20029;-76
2024/01/09 11:16:11;;;;;;;193.77;119.50;;;;;;;21.01;32.94;103792.66;5020682;28;20696;-76
2024/01/09 11:18:38;;;;;;;205.40;123.97;;;;;;;20.89;32.83;103780.31;5020330;28;20053;-75
2024/01/09 11:21:04;;;;;;;205.18;123.25;;;;;;;20.84;33.15;103782.47;5020140;28;20068;-76
2024/01/09 11:24:02;;;;;;;210.52;125.75;;;;;;;20.74;33.06;103778.81;5009151;28;20052;-76
2024/01/09 11:26:31;;;;;;;216.93;127.88;;;;;;;20.69;33.25;103770.38;5011214;28;20465;-77
2024/01/09 11:28:58;;;;;;;217.50;128.63;;;;;;;20.65;33.25;103772.41;5021858;28;20049;-76
2024/01/09 11:31:27;;;;;;;228.95;133.00;;;;;;;20.60;33.42;103773.69;5021401;28;20064;-76
2024/01/09 11:33:55;;;;;;;216.65;127.72;;;;;;;20.49;33.35;103755.97;5022602;28;20691;-76
2024/01/09 11:36:30;;;;;;;219.10;128.98;;;;;;;20.61;33.18;103755.03;5007927;28;20033;-77
2024/01/09 11:38:56;;;;;;;221.88;130.18;;;;;;;20.84;32.88;103750.69;5020045;28;20037;-77
2024/01/09 11:41:23;;;;;;;223.43;130.70;;;;;;;21.04;32.61;103757.97;4977710;28;20504;-76
2024/01/09 11:44:03;;;;;;;215.30;127.57;;;;;;;21.11;32.42;103753.88;5023056;28;20029;-76